Time;durP1;ratioP1;P1;durP2;ratioP2;P2;SDS_P1;SDS_P2;PMS_P1;PMS_P2;Temp;Humidity;BMP_temperature;BMP_pressure;BME280_temperature;BME280_humidity;BME280_pressure;Samples;Min_cycle;Max_cycle;Signal;HPM_P1;HPM_P2
2023/04/03 00:00:00;;;;;;;7.22;4.10;;;;;;;;;;1035452;28;20057;-18
2023/04/03 00:00:31;;;;;;;9.35;4.00;;;;;;;;;;1035104;28;20121;-20
2023/04/03 00:01:02;;;;;;;15.20;5.80;;;;;;;;;;1035576;28;20120;-19
2023/04/03 00:01:33;;;;;;;15.35;5.32;;;;;;;;;;1035408;28;20108;-22
2023/04/03 00:02:03;;;;;;;7.80;4.72;;;;;;;;;;1034535;28;20032;-17
2023/04/03 00:02:34;;;;;;;12.90;7.55;;;;;;;;;;1035250;28;20068;-22
2023/04/03 00:03:04;;;;;;;20.50;5.78;;;;;;;;;;1035487;28;20436;-22
2023/04/03 00:03:35;;;;;;;14.95;4.10;;;;;;;;;;1035281;28;20580;-19
2023/04/03 00:04:05;;;;;;;17.50;5.15;;;;;;;;;;1036308;28;20022;-16
2023/04/03 00:04:36;;;;;;;17.88;6.78;;;;;;;;;;1036144;28;20029;-22
2023/04/03 00:05:07;;;;;;;8.65;4.30;;;;;;;;;;1036384;28;20482;-22
2023/04/03 00:05:37;;;;;;;47.22;7.75;;;;;;;;;;1036087;28;20103;-19
2023/04/03 00:06:10;;;;;;;11.63;5.80;;;;;;;;;;1036441;28;20045;-22
2023/04/03 00:06:40;;;;;;;9.68;5.50;;;;;;;;;;1036117;28;20026;-21
2023/04/03 00:07:12;;;;;;;18.55;8.40;;;;;;;;;;1036275;28;20032;-21
2023/04/03 00:07:42;;;;;;;8.50;5.43;;;;;;;;;;1035521;28;20505;-20
2023/04/03 00:08:13;;;;;;;35.22;7.88;;;;;;;;;;1036381;28;20022;-19
2023/04/03 00:08:43;;;;;;;7.55;5.22;;;;;;;;;;1036250;28;20021;-21
2023/04/03 00:09:14;;;;;;;9.18;6.18;;;;;;;;;;1036357;28;20493;-21
2023/04/03 00:09:44;;;;;;;8.00;4.00;;;;;;;;;;1036025;28;20029;-20
2023/04/03 00:10:15;;;;;;;16.45;4.07;;;;;;;;;;1035900;28;20033;-22
2023/04/03 00:10:46;;;;;;;16.25;6.18;;;;;;;;;;1036179;28;20018;-21
2023/04/03 00:11:16;;;;;;;8.80;4.75;;;;;;;;;;1036135;28;20408;-20
2023/04/03 00:11:47;;;;;;;21.30;4.75;;;;;;;;;;1036012;28;20034;-22
2023/04/03 00:12:17;;;;;;;10.15;5.40;;;;;;;;;;1035936;28;20169;-19
2023/04/03 00:12:48;;;;;;;9.95;5.15;;;;;;;;;;1036116;28;20017;-18
2023/04/03 00:13:19;;;;;;;6.72;3.95;;;;;;;;;;1036378;28;20029;-22
2023/04/03 00:13:49;;;;;;;20.90;5.35;;;;;;;;;;1036120;28;20018;-20
2023/04/03 00:14:20;;;;;;;10.02;5.65;;;;;;;;;;1036389;28;20018;-19
2023/04/03 00:14:50;;;;;;;16.02;6.50;;;;;;;;;;1036059;28;20065;-22
2023/04/03 00:15:21;;;;;;;17.33;6.05;;;;;;;;;;1036364;28;20018;-20
2023/04/03 00:15:51;;;;;;;11.63;4.75;;;;;;;;;;1036025;28;20048;-20
2023/04/03 00:16:22;;;;;;;28.02;5.97;;;;;;;;;;1036283;28;20437;-19
2023/04/03 00:16:52;;;;;;;17.95;5.35;;;;;;;;;;1036208;28;20029;-17
2023/04/03 00:17:23;;;;;;;20.90;7.63;;;;;;;;;;1035991;28;20029;-20
2023/04/03 00:17:53;;;;;;;5.53;4.80;;;;;;;;;;1036058;28;20075;-21
2023/04/03 00:18:24;;;;;;;8.40;4.38;;;;;;;;;;1035981;28;20021;-19
2023/04/03 00:18:54;;;;;;;9.07;5.53;;;;;;;;;;1036210;28;20026;-22
2023/04/03 00:19:25;;;;;;;8.32;5.20;;;;;;;;;;1036401;28;20108;-20
2023/04/03 00:19:55;;;;;;;14.13;5.18;;;;;;;;;;1036144;28;20125;-21
2023/04/03 00:20:27;;;;;;;30.75;7.25;;;;;;;;;;1035871;28;20018;-22
2023/04/03 00:20:57;;;;;;;7.95;4.55;;;;;;;;;;1035328;28;20029;-18
2023/04/03 00:21:27;;;;;;;21.45;6.95;;;;;;;;;;1035938;28;20521;-22
2023/04/03 00:21:58;;;;;;;13.30;6.78;;;;;;;;;;1035853;28;20025;-19
2023/04/03 00:22:28;;;;;;;11.07;5.03;;;;;;;;;;1036097;28;20057;-22
2023/04/03 00:22:59;;;;;;;8.85;3.95;;;;;;;;;;1036346;28;20014;-20
2023/04/03 00:23:30;;;;;;;11.57;5.20;;;;;;;;;;1035980;28;20033;-20
2023/04/03 00:24:00;;;;;;;9.10;5.47;;;;;;;;;;1036285;28;20779;-21
2023/04/03 00:24:31;;;;;;;11.27;5.90;;;;;;;;;;1035923;28;20378;-17
2023/04/03 00:25:01;;;;;;;15.63;5.78;;;;;;;;;;1036386;28;20076;-20
2023/04/03 00:25:32;;;;;;;9.68;5.03;;;;;;;;;;1035986;28;20033;-21
2023/04/03 00:26:03;;;;;;;20.13;5.85;;;;;;;;;;1036365;28;20017;-21
2023/04/03 00:26:33;;;;;;;9.95;4.35;;;;;;;;;;1035969;28;20022;-16
2023/04/03 00:27:04;;;;;;;10.10;4.50;;;;;;;;;;1036261;28;20029;-18
2023/04/03 00:27:36;;;;;;;7.22;4.38;;;;;;;;;;1035548;28;20128;-22
2023/04/03 00:28:06;;;;;;;14.75;3.90;;;;;;;;;;1036193;28;20049;-22
2023/04/03 00:28:37;;;;;;;20.52;5.10;;;;;;;;;;1036023;28;20084;-20
2023/04/03 00:29:07;;;;;;;37.00;4.88;;;;;;;;;;1035808;28;20049;-18
2023/04/03 00:29:38;;;;;;;8.70;5.85;;;;;;;;;;1035699;28;20088;-19
2023/04/03 00:30:10;;;;;;;12.35;4.68;;;;;;;;;;1036075;28;20036;-18
2023/04/03 00:30:41;;;;;;;8.13;4.97;;;;;;;;;;1036026;28;20518;-22
2023/04/03 00:31:14;;;;;;;10.98;4.35;;;;;;;;;;1036360;28;20036;-20
2023/04/03 00:31:45;;;;;;;16.88;5.97;;;;;;;;;;1035581;28;20028;-19
2023/04/03 00:32:15;;;;;;;20.55;6.45;;;;;;;;;;1035232;28;20030;-18
2023/04/03 00:32:47;;;;;;;17.10;7.03;;;;;;;;;;1035542;28;20166;-16
2023/04/03 00:33:21;;;;;;;7.28;3.63;;;;;;;;;;1035846;28;20022;-19
2023/04/03 00:33:51;;;;;;;10.52;5.97;;;;;;;;;;1034717;28;20060;-18
2023/04/03 00:34:22;;;;;;;13.50;3.28;;;;;;;;;;1036065;28;20025;-19
2023/04/03 00:34:52;;;;;;;5.72;3.53;;;;;;;;;;1036082;28;20072;-21
2023/04/03 00:35:23;;;;;;;5.00;2.67;;;;;;;;;;1036147;28;20117;-19
2023/04/03 00:35:54;;;;;;;7.65;3.67;;;;;;;;;;1035962;28;20041;-20
2023/04/03 00:36:24;;;;;;;12.13;5.60;;;;;;;;;;1036197;28;20025;-20
2023/04/03 00:36:54;;;;;;;10.50;4.18;;;;;;;;;;1036113;28;20018;-22
2023/04/03 00:37:25;;;;;;;7.95;5.10;;;;;;;;;;1036067;28;20029;-21
2023/04/03 00:37:56;;;;;;;8.95;3.17;;;;;;;;;;1034905;28;20389;-19
2023/04/03 00:38:26;;;;;;;9.80;4.57;;;;;;;;;;1035064;28;20389;-22
2023/04/03 00:38:57;;;;;;;14.68;4.50;;;;;;;;;;1035710;28;20527;-20
2023/04/03 00:39:27;;;;;;;9.93;3.40;;;;;;;;;;1035280;28;20394;-21
2023/04/03 00:39:58;;;;;;;21.67;4.63;;;;;;;;;;1035770;28;20028;-22
2023/04/03 00:40:32;;;;;;;9.73;4.68;;;;;;;;;;1035924;28;20054;-21
2023/04/03 00:41:03;;;;;;;11.38;4.70;;;;;;;;;;1035866;28;20025;-20
2023/04/03 00:41:35;;;;;;;6.15;3.38;;;;;;;;;;1035713;28;20055;-19
2023/04/03 00:42:05;;;;;;;9.82;4.97;;;;;;;;;;1035715;28;20113;-20
2023/04/03 00:42:37;;;;;;;10.38;3.65;;;;;;;;;;1034555;28;20022;-16
2023/04/03 00:43:21;;;;;;;14.52;5.45;;;;;;;;;;1035850;28;20076;-21
2023/04/03 00:43:52;;;;;;;8.82;5.40;;;;;;;;;;1035743;28;20030;-19
2023/04/03 00:44:43;;;;;;;15.48;5.00;;;;;;;;;;1036066;28;20373;-19
2023/04/03 00:45:22;;;;;;;10.80;4.22;;;;;;;;;;1035644;28;20593;-20
2023/04/03 00:45:54;;;;;;;4.47;3.70;;;;;;;;;;1035146;28;20056;-19
2023/04/03 00:46:24;;;;;;;8.45;2.88;;;;;;;;;;1036007;28;20034;-19
2023/04/03 00:46:55;;;;;;;8.02;3.83;;;;;;;;;;1034865;28;20076;-20
2023/04/03 00:47:25;;;;;;;28.92;4.38;;;;;;;;;;1035153;28;20029;-22
2023/04/03 00:47:59;;;;;;;2.83;1.58;;;;;;;;;;1035335;28;20022;-19
2023/04/03 00:48:50;;;;;;;4.15;3.08;;;;;;;;;;1035086;28;20045;-20
2023/04/03 00:49:20;;;;;;;4.35;3.97;;;;;;;;;;1034552;28;20038;-18
2023/04/03 00:49:51;;;;;;;4.40;3.17;;;;;;;;;;1035646;28;20042;-20
2023/04/03 00:50:22;;;;;;;6.60;3.22;;;;;;;;;;1035606;28;20021;-20
2023/04/03 00:50:53;;;;;;;8.25;3.67;;;;;;;;;;1035607;28;20032;-19
2023/04/03 00:51:24;;;;;;;5.57;3.38;;;;;;;;;;1035994;28;20112;-22
2023/04/03 00:51:55;;;;;;;6.07;2.63;;;;;;;;;;1035569;28;20026;-19
2023/04/03 00:52:28;;;;;;;2.97;2.70;;;;;;;;;;1035767;28;20892;-20
2023/04/03 00:52:59;;;;;;;9.43;3.60;;;;;;;;;;1035647;28;20116;-19
2023/04/03 00:53:38;;;;;;;3.58;1.75;;;;;;;;;;1035676;28;20026;-21
2023/04/03 00:54:09;;;;;;;4.43;2.58;;;;;;;;;;1035591;28;20037;-20
2023/04/03 00:54:40;;;;;;;19.05;1.60;;;;;;;;;;1035754;28;20037;-20
2023/04/03 00:55:11;;;;;;;10.02;3.42;;;;;;;;;;1035787;28;20531;-20
2023/04/03 00:55:42;;;;;;;4.75;4.35;;;;;;;;;;1035575;28;20026;-22
2023/04/03 00:56:15;;;;;;;2.45;1.63;;;;;;;;;;1034945;28;20032;-22
2023/04/03 00:56:45;;;;;;;1.77;1.65;;;;;;;;;;1035930;28;20026;-21
2023/04/03 00:57:16;;;;;;;4.57;2.15;;;;;;;;;;1035351;28;20114;-21
2023/04/03 00:57:47;;;;;;;1.20;1.10;;;;;;;;;;1035456;28;20697;-22
2023/04/03 00:58:19;;;;;;;8.00;2.00;;;;;;;;;;1035939;28;20031;-20
2023/04/03 00:59:01;;;;;;;3.45;2.13;;;;;;;;;;1035860;28;20021;-20
2023/04/03 00:59:33;;;;;;;10.38;3.17;;;;;;;;;;1035694;28;20921;-22
2023/04/03 01:00:10;;;;;;;17.38;2.42;;;;;;;;;;1036002;28;20025;-22
2023/04/03 01:00:42;;;;;;;12.95;2.10;;;;;;;;;;1035342;28;20416;-22
2023/04/03 01:01:15;;;;;;;2.85;2.65;;;;;;;;;;1035391;28;20032;-22
2023/04/03 01:01:45;;;;;;;0.90;0.90;;;;;;;;;;1035540;28;20050;-20
2023/04/03 01:02:16;;;;;;;2.60;1.70;;;;;;;;;;1035801;28;20057;-19
2023/04/03 01:02:46;;;;;;;4.82;2.97;;;;;;;;;;1035886;28;20044;-21
2023/04/03 01:03:17;;;;;;;3.30;3.03;;;;;;;;;;1035773;28;20026;-20
2023/04/03 01:03:47;;;;;;;2.78;2.17;;;;;;;;;;1035477;28;20053;-21
2023/04/03 01:04:28;;;;;;;2.10;2.00;;;;;;;;;;1035346;28;20022;-22
2023/04/03 01:04:58;;;;;;;1.67;1.40;;;;;;;;;;1034959;28;20128;-21
2023/04/03 01:05:29;;;;;;;1.40;1.30;;;;;;;;;;1035395;28;20057;-20
2023/04/03 01:05:59;;;;;;;9.95;3.15;;;;;;;;;;1035302;28;20037;-20
2023/04/03 01:06:32;;;;;;;4.80;2.67;;;;;;;;;;1035689;28;20569;-21
2023/04/03 01:07:07;;;;;;;1.50;1.40;;;;;;;;;;1034976;28;20092;-19
2023/04/03 01:07:38;;;;;;;6.38;2.45;;;;;;;;;;1035348;28;20022;-20
2023/04/03 01:08:08;;;;;;;2.83;2.30;;;;;;;;;;1035817;28;20034;-22
2023/04/03 01:08:39;;;;;;;4.43;2.47;;;;;;;;;;1035752;28;20482;-19
2023/04/03 01:09:10;;;;;;;4.38;3.53;;;;;;;;;;1035734;28;20068;-22
2023/04/03 01:09:40;;;;;;;6.38;3.38;;;;;;;;;;1035892;28;20076;-22
2023/04/03 01:10:13;;;;;;;9.40;4.22;;;;;;;;;;1035577;28;20030;-22
2023/04/03 01:10:44;;;;;;;8.45;5.80;;;;;;;;;;1035492;28;20104;-21
2023/04/03 01:11:15;;;;;;;6.90;4.47;;;;;;;;;;1034604;28;20042;-21
2023/04/03 01:11:45;;;;;;;14.15;7.90;;;;;;;;;;1035470;28;20140;-21
2023/04/03 01:12:17;;;;;;;31.65;8.38;;;;;;;;;;1034758;28;20065;-20
2023/04/03 01:12:49;;;;;;;21.80;8.40;;;;;;;;;;1034734;28;20129;-20
2023/04/03 01:13:27;;;;;;;10.07;4.32;;;;;;;;;;1035446;28;20025;-21
2023/04/03 01:13:57;;;;;;;13.93;4.85;;;;;;;;;;1035225;28;20036;-21
2023/04/03 01:14:28;;;;;;;5.65;2.83;;;;;;;;;;1034426;28;20021;-22
2023/04/03 01:15:04;;;;;;;10.63;5.05;;;;;;;;;;1034852;28;20034;-21
2023/04/03 01:15:35;;;;;;;2.22;1.95;;;;;;;;;;1033220;28;20378;-21
2023/04/03 01:16:05;;;;;;;2.67;2.28;;;;;;;;;;1035882;28;20025;-20
2023/04/03 01:16:36;;;;;;;14.10;5.68;;;;;;;;;;1034276;28;20478;-22
2023/04/03 01:17:25;;;;;;;8.07;3.80;;;;;;;;;;1035680;28;20112;-17
2023/04/03 01:17:56;;;;;;;7.40;3.58;;;;;;;;;;1034526;28;20076;-19
2023/04/03 01:18:27;;;;;;;7.40;5.00;;;;;;;;;;1033040;28;21903;-23
2023/04/03 01:18:58;;;;;;;7.22;4.20;;;;;;;;;;1034200;28;20033;-21
2023/04/03 01:19:29;;;;;;;13.13;5.15;;;;;;;;;;1034098;28;20037;-17
2023/04/03 01:20:17;;;;;;;12.55;4.38;;;;;;;;;;1035804;28;20026;-22
2023/04/03 01:20:57;;;;;;;4.75;3.42;;;;;;;;;;1034185;28;20029;-21
2023/04/03 01:21:43;;;;;;;20.30;4.22;;;;;;;;;;1032936;28;20061;-21
2023/04/03 01:22:19;;;;;;;10.15;4.43;;;;;;;;;;1032645;28;20069;-21
2023/04/03 01:23:06;;;;;;;11.13;5.55;;;;;;;;;;1034453;28;20034;-20
2023/04/03 01:23:41;;;;;;;10.23;5.25;;;;;;;;;;1033677;28;20025;-20
2023/04/03 01:24:15;;;;;;;27.85;4.93;;;;;;;;;;1033712;28;20504;-22
2023/04/03 01:24:47;;;;;;;9.77;6.20;;;;;;;;;;1035234;28;20624;-19
2023/04/03 01:25:17;;;;;;;14.55;6.40;;;;;;;;;;1034096;28;20029;-21
2023/04/03 01:25:52;;;;;;;10.68;5.47;;;;;;;;;;1032916;28;20025;-23
2023/04/03 01:26:23;;;;;;;9.10;4.28;;;;;;;;;;1032375;28;20034;-19
2023/04/03 01:26:54;;;;;;;10.07;4.45;;;;;;;;;;1032019;28;20144;-22
2023/04/03 01:27:25;;;;;;;9.07;5.25;;;;;;;;;;1031387;28;20029;-19
2023/04/03 01:27:56;;;;;;;9.77;6.10;;;;;;;;;;1032933;28;20025;-17
2023/04/03 01:28:28;;;;;;;13.95;4.70;;;;;;;;;;1038737;28;20028;-23
2023/04/03 01:28:59;;;;;;;3.35;2.70;;;;;;;;;;1041935;28;20028;-20
2023/04/03 01:29:29;;;;;;;13.15;6.78;;;;;;;;;;1042904;28;20047;-19
2023/04/03 01:30:00;;;;;;;11.25;5.25;;;;;;;;;;1040809;28;20013;-20
2023/04/03 01:30:33;;;;;;;32.78;6.03;;;;;;;;;;1035062;28;20135;-22
2023/04/03 01:31:07;;;;;;;11.68;5.50;;;;;;;;;;1035347;28;20022;-20
2023/04/03 01:31:37;;;;;;;5.05;4.60;;;;;;;;;;1034507;28;20179;-22
2023/04/03 01:32:08;;;;;;;5.95;3.67;;;;;;;;;;1033532;28;20030;-22
2023/04/03 01:32:38;;;;;;;11.38;5.72;;;;;;;;;;1032356;28;20026;-20
2023/04/03 01:33:09;;;;;;;15.50;5.38;;;;;;;;;;1034269;28;20067;-23
2023/04/03 01:33:40;;;;;;;14.77;5.57;;;;;;;;;;1033758;28;20060;-20
2023/04/03 01:34:11;;;;;;;11.73;4.75;;;;;;;;;;1036866;28;20026;-23
2023/04/03 01:34:42;;;;;;;12.88;5.00;;;;;;;;;;1037952;28;20013;-23
2023/04/03 01:35:12;;;;;;;11.90;5.07;;;;;;;;;;1037555;28;20056;-21
2023/04/03 01:35:43;;;;;;;11.23;4.25;;;;;;;;;;1034928;28;20026;-22
2023/04/03 01:36:20;;;;;;;12.10;6.05;;;;;;;;;;1034375;28;20501;-19
2023/04/03 01:36:51;;;;;;;19.13;5.15;;;;;;;;;;1034117;28;20478;-21
2023/04/03 01:37:22;;;;;;;7.75;4.45;;;;;;;;;;1032135;28;20537;-20
2023/04/03 01:37:52;;;;;;;12.68;3.67;;;;;;;;;;1034773;28;20040;-19
2023/04/03 01:38:23;;;;;;;18.33;6.25;;;;;;;;;;1033161;28;20037;-23
2023/04/03 01:38:54;;;;;;;12.80;6.03;;;;;;;;;;1034049;28;20183;-23
2023/04/03 01:39:24;;;;;;;21.65;6.90;;;;;;;;;;1032278;28;20734;-21
2023/04/03 01:39:55;;;;;;;10.35;5.90;;;;;;;;;;1033124;28;20053;-21
2023/04/03 01:40:26;;;;;;;11.00;4.10;;;;;;;;;;1032761;28;20037;-22
2023/04/03 01:40:56;;;;;;;10.95;5.78;;;;;;;;;;1034971;28;20421;-21
2023/04/03 01:41:27;;;;;;;4.55;3.70;;;;;;;;;;1031610;28;20753;-20
2023/04/03 01:41:59;;;;;;;3.70;2.10;;;;;;;;;;1031695;28;20037;-17
2023/04/03 01:42:29;;;;;;;16.10;3.85;;;;;;;;;;1030726;28;20360;-21
2023/04/03 01:43:00;;;;;;;5.32;4.03;;;;;;;;;;1033588;28;20521;-23
2023/04/03 01:43:30;;;;;;;12.18;5.45;;;;;;;;;;1033883;28;20406;-23
2023/04/03 01:44:01;;;;;;;9.52;3.10;;;;;;;;;;1034857;28;20115;-20
2023/04/03 01:44:31;;;;;;;17.23;4.15;;;;;;;;;;1034489;28;20029;-21
2023/04/03 01:45:02;;;;;;;25.08;3.67;;;;;;;;;;1033751;28;20038;-22
2023/04/03 01:45:34;;;;;;;7.70;3.67;;;;;;;;;;1034244;28;20091;-22
2023/04/03 01:46:04;;;;;;;10.18;4.63;;;;;;;;;;1032903;28;20414;-21
2023/04/03 01:46:35;;;;;;;8.70;4.38;;;;;;;;;;1031925;28;20034;-23
2023/04/03 01:47:07;;;;;;;9.55;2.85;;;;;;;;;;1031111;28;20405;-24
2023/04/03 01:47:37;;;;;;;10.27;3.42;;;;;;;;;;1030820;28;20036;-21
2023/04/03 01:48:08;;;;;;;5.65;3.65;;;;;;;;;;1033576;28;20441;-20
2023/04/03 01:48:38;;;;;;;7.10;4.13;;;;;;;;;;1031672;28;20482;-22
2023/04/03 01:49:09;;;;;;;7.32;4.95;;;;;;;;;;1032985;28;20141;-23
2023/04/03 01:49:39;;;;;;;11.75;4.20;;;;;;;;;;1031199;28;20128;-23
2023/04/03 01:50:10;;;;;;;17.73;4.82;;;;;;;;;;1033684;28;20034;-20
2023/04/03 01:50:40;;;;;;;8.98;3.15;;;;;;;;;;1033852;28;20026;-21
2023/04/03 01:51:11;;;;;;;8.10;3.85;;;;;;;;;;1034018;28;20022;-20
2023/04/03 01:51:41;;;;;;;13.95;4.55;;;;;;;;;;1026893;28;20145;-21
2023/04/03 01:52:12;;;;;;;3.70;2.35;;;;;;;;;;1028774;28;20084;-20
2023/04/03 01:52:43;;;;;;;15.27;3.08;;;;;;;;;;1026443;28;20030;-21
2023/04/03 01:53:14;;;;;;;4.80;2.70;;;;;;;;;;1026984;28;20051;-23
2023/04/03 01:53:45;;;;;;;5.45;3.38;;;;;;;;;;1032037;28;20096;-21
2023/04/03 01:54:15;;;;;;;14.80;3.85;;;;;;;;;;1028923;28;20479;-23
2023/04/03 01:54:46;;;;;;;4.47;3.53;;;;;;;;;;1033123;28;20033;-19
2023/04/03 01:55:16;;;;;;;8.70;5.03;;;;;;;;;;1032733;28;20447;-23
2023/04/03 01:55:48;;;;;;;11.20;3.50;;;;;;;;;;1033235;28;20026;-21
2023/04/03 01:56:18;;;;;;;9.02;4.30;;;;;;;;;;1031890;28;20028;-22
2023/04/03 01:56:50;;;;;;;16.27;2.22;;;;;;;;;;1033105;28;20073;-23
2023/04/03 01:57:20;;;;;;;8.70;3.88;;;;;;;;;;1031991;28;20048;-20
2023/04/03 01:57:51;;;;;;;9.88;3.22;;;;;;;;;;1027414;28;20593;-23
2023/04/03 01:58:22;;;;;;;4.57;2.88;;;;;;;;;;1033300;28;20041;-22
2023/04/03 01:58:53;;;;;;;5.50;1.80;;;;;;;;;;1029881;28;20561;-21
2023/04/03 01:59:26;;;;;;;6.47;3.63;;;;;;;;;;1029804;28;20034;-22
2023/04/03 01:59:58;;;;;;;9.15;5.28;;;;;;;;;;1031830;28;20032;-23
2023/04/03 02:00:29;;;;;;;5.38;2.33;;;;;;;;;;1034720;28;20658;-22
2023/04/03 02:01:00;;;;;;;9.07;4.88;;;;;;;;;;1034924;28;20523;-20
2023/04/03 02:01:30;;;;;;;36.45;4.95;;;;;;;;;;1034316;28;20096;-23
2023/04/03 02:02:01;;;;;;;15.75;3.67;;;;;;;;;;1034994;28;20041;-23
2023/04/03 02:02:31;;;;;;;4.22;2.60;;;;;;;;;;1033574;28;21316;-20
2023/04/03 02:03:02;;;;;;;10.48;5.70;;;;;;;;;;1033895;28;20040;-21
2023/04/03 02:03:33;;;;;;;11.93;5.70;;;;;;;;;;1034378;28;20052;-22
2023/04/03 02:04:04;;;;;;;4.78;2.70;;;;;;;;;;1035208;28;20022;-23
2023/04/03 02:04:34;;;;;;;15.18;3.47;;;;;;;;;;1034119;28;20033;-21
2023/04/03 02:05:05;;;;;;;11.75;5.55;;;;;;;;;;1034838;28;20060;-19
2023/04/03 02:05:35;;;;;;;6.35;2.70;;;;;;;;;;1033041;28;20022;-19
2023/04/03 02:06:06;;;;;;;7.85;3.58;;;;;;;;;;1034096;28;20022;-23
2023/04/03 02:06:37;;;;;;;23.33;4.97;;;;;;;;;;1034570;28;20057;-22
2023/04/03 02:07:07;;;;;;;6.47;3.65;;;;;;;;;;1034156;28;20018;-21
2023/04/03 02:07:38;;;;;;;15.50;7.13;;;;;;;;;;1033293;28;20030;-21
2023/04/03 02:08:08;;;;;;;17.58;4.70;;;;;;;;;;1033588;28;20544;-21
2023/04/03 02:08:38;;;;;;;6.70;4.60;;;;;;;;;;1032931;28;20034;-20
2023/04/03 02:09:09;;;;;;;15.30;3.33;;;;;;;;;;1033710;28;20939;-20
2023/04/03 02:09:41;;;;;;;15.13;3.78;;;;;;;;;;1030810;28;20025;-22
2023/04/03 02:10:12;;;;;;;12.93;5.18;;;;;;;;;;1036001;28;20116;-21
2023/04/03 02:10:43;;;;;;;13.15;4.47;;;;;;;;;;1037673;28;20383;-23
2023/04/03 02:11:14;;;;;;;6.38;4.13;;;;;;;;;;1037571;28;20044;-21
2023/04/03 02:11:44;;;;;;;11.48;4.85;;;;;;;;;;1036263;28;20029;-22
2023/04/03 02:12:15;;;;;;;23.65;2.97;;;;;;;;;;1034356;28;20120;-21
2023/04/03 02:12:46;;;;;;;5.78;2.28;;;;;;;;;;1032379;28;20030;-23
2023/04/03 02:13:17;;;;;;;13.45;4.95;;;;;;;;;;1032846;28;20390;-22
2023/04/03 02:13:48;;;;;;;10.45;4.60;;;;;;;;;;1033557;28;20100;-23
2023/04/03 02:14:20;;;;;;;7.28;3.78;;;;;;;;;;1028393;28;20019;-21
2023/04/03 02:14:50;;;;;;;20.48;6.03;;;;;;;;;;1025253;28;20851;-21
2023/04/03 02:15:21;;;;;;;10.05;4.32;;;;;;;;;;1030071;28;20026;-21
2023/04/03 02:15:52;;;;;;;7.25;3.65;;;;;;;;;;1030096;28;20034;-23
2023/04/03 02:16:23;;;;;;;7.72;4.07;;;;;;;;;;1033260;28;20029;-24
2023/04/03 02:16:54;;;;;;;12.43;5.28;;;;;;;;;;1035663;28;20036;-22
2023/04/03 02:17:25;;;;;;;10.05;4.57;;;;;;;;;;1034567;28;20567;-20
2023/04/03 02:17:56;;;;;;;9.05;3.03;;;;;;;;;;1033869;28;20053;-20
2023/04/03 02:18:26;;;;;;;7.07;3.95;;;;;;;;;;1034203;28;20022;-20
2023/04/03 02:18:57;;;;;;;26.75;6.10;;;;;;;;;;1034549;28;20037;-22
2023/04/03 02:19:28;;;;;;;10.80;3.00;;;;;;;;;;1033245;28;20125;-20
2023/04/03 02:20:00;;;;;;;5.95;4.32;;;;;;;;;;1032941;28;20504;-22
2023/04/03 02:20:30;;;;;;;15.82;5.07;;;;;;;;;;1032520;28;20188;-21
2023/04/03 02:21:00;;;;;;;9.02;2.65;;;;;;;;;;1030829;28;20144;-22
2023/04/03 02:21:31;;;;;;;8.35;4.65;;;;;;;;;;1032332;28;20068;-21
2023/04/03 02:22:02;;;;;;;16.73;3.20;;;;;;;;;;1034163;28;20105;-21
2023/04/03 02:22:33;;;;;;;21.67;5.03;;;;;;;;;;1032638;28;20120;-18
2023/04/03 02:23:03;;;;;;;33.95;5.45;;;;;;;;;;1033552;28;20018;-21
2023/04/03 02:23:36;;;;;;;4.57;2.58;;;;;;;;;;1032863;28;20059;-23
2023/04/03 02:24:06;;;;;;;13.90;3.58;;;;;;;;;;1033265;28;20038;-23
2023/04/03 02:24:38;;;;;;;14.98;3.10;;;;;;;;;;1033151;28;20061;-21
2023/04/03 02:25:10;;;;;;;11.55;3.05;;;;;;;;;;1032321;28;20132;-19
2023/04/03 02:25:40;;;;;;;8.48;4.45;;;;;;;;;;1033054;28;20026;-21
2023/04/03 02:26:12;;;;;;;6.20;3.97;;;;;;;;;;1033963;28;20514;-23
2023/04/03 02:26:42;;;;;;;9.52;5.72;;;;;;;;;;1034127;28;20045;-21
2023/04/03 02:27:13;;;;;;;10.88;3.67;;;;;;;;;;1033630;28;20017;-21
2023/04/03 02:27:44;;;;;;;7.60;2.85;;;;;;;;;;1034110;28;20033;-23
2023/04/03 02:28:14;;;;;;;8.65;3.05;;;;;;;;;;1033591;28;20037;-20
2023/04/03 02:28:45;;;;;;;8.13;3.03;;;;;;;;;;1034632;28;20026;-23
2023/04/03 02:29:16;;;;;;;12.77;3.30;;;;;;;;;;1033407;28;20054;-19
2023/04/03 02:29:46;;;;;;;12.35;2.75;;;;;;;;;;1033969;28;20034;-22
2023/04/03 02:30:17;;;;;;;8.27;3.78;;;;;;;;;;1033727;28;20474;-23
2023/04/03 02:30:48;;;;;;;4.88;2.67;;;;;;;;;;1033450;28;20025;-23
2023/04/03 02:31:20;;;;;;;10.10;4.93;;;;;;;;;;1032102;28;20128;-23
2023/04/03 02:31:51;;;;;;;7.78;2.13;;;;;;;;;;1032609;28;20449;-22
2023/04/03 02:32:23;;;;;;;10.65;4.57;;;;;;;;;;1033720;28;20029;-20
2023/04/03 02:32:54;;;;;;;9.23;2.85;;;;;;;;;;1033818;28;20068;-21
2023/04/03 02:33:25;;;;;;;14.55;3.63;;;;;;;;;;1034258;28;20025;-20
2023/04/03 02:33:56;;;;;;;9.88;3.40;;;;;;;;;;1032228;28;20536;-23
2023/04/03 02:34:26;;;;;;;13.27;3.53;;;;;;;;;;1037011;28;20051;-24
2023/04/03 02:34:57;;;;;;;7.03;3.88;;;;;;;;;;1039581;28;20575;-20
2023/04/03 02:35:28;;;;;;;9.90;3.72;;;;;;;;;;1040828;28;20135;-20
2023/04/03 02:35:58;;;;;;;10.95;4.45;;;;;;;;;;1041877;28;20408;-23
2023/04/03 02:36:29;;;;;;;8.30;4.13;;;;;;;;;;1033070;28;20025;-18
2023/04/03 02:36:59;;;;;;;17.83;3.97;;;;;;;;;;1034059;28;20053;-23
2023/04/03 02:37:30;;;;;;;9.25;4.63;;;;;;;;;;1031651;28;20809;-23
2023/04/03 02:38:00;;;;;;;13.48;3.20;;;;;;;;;;1034705;28;20018;-23
2023/04/03 02:38:32;;;;;;;5.50;2.60;;;;;;;;;;1031813;28;20026;-22
2023/04/03 02:39:03;;;;;;;8.70;3.47;;;;;;;;;;1028647;28;20509;-22
2023/04/03 02:39:35;;;;;;;7.03;3.30;;;;;;;;;;1024232;28;20026;-23
2023/04/03 02:40:07;;;;;;;10.25;5.13;;;;;;;;;;1022217;28;20032;-24
2023/04/03 02:40:38;;;;;;;21.48;3.60;;;;;;;;;;1026697;28;20023;-23
2023/04/03 02:41:10;;;;;;;9.07;2.70;;;;;;;;;;1033092;28;20030;-20
2023/04/03 02:41:41;;;;;;;6.50;3.17;;;;;;;;;;1033663;28;20025;-20
2023/04/03 02:42:12;;;;;;;16.65;4.57;;;;;;;;;;1032948;28;20048;-22
2023/04/03 02:42:42;;;;;;;8.30;4.35;;;;;;;;;;1033365;28;20030;-19
2023/04/03 02:43:13;;;;;;;15.00;4.35;;;;;;;;;;1031417;28;20416;-22
2023/04/03 02:43:44;;;;;;;19.80;4.72;;;;;;;;;;1031044;28;20419;-22
2023/04/03 02:44:15;;;;;;;6.43;3.00;;;;;;;;;;1027249;28;20133;-22
2023/04/03 02:44:45;;;;;;;7.00;2.92;;;;;;;;;;1027654;28;20030;-21
2023/04/03 02:45:16;;;;;;;6.18;2.95;;;;;;;;;;1026323;28;20022;-21
2023/04/03 02:45:47;;;;;;;5.20;2.80;;;;;;;;;;1029172;28;20516;-21
2023/04/03 02:46:18;;;;;;;4.95;2.13;;;;;;;;;;1033108;28;20031;-20
2023/04/03 02:46:49;;;;;;;4.45;2.65;;;;;;;;;;1033222;28;20681;-23
2023/04/03 02:47:25;;;;;;;18.50;4.18;;;;;;;;;;1034374;28;20472;-22
2023/04/03 02:47:57;;;;;;;16.58;5.03;;;;;;;;;;1030808;28;20525;-24
2023/04/03 02:48:29;;;;;;;5.22;3.60;;;;;;;;;;1025955;28;20026;-23
2023/04/03 02:49:04;;;;;;;7.60;3.58;;;;;;;;;;1027610;28;20033;-24
2023/04/03 02:49:38;;;;;;;12.45;3.28;;;;;;;;;;1028303;28;20462;-23
2023/04/03 02:50:10;;;;;;;9.73;3.20;;;;;;;;;;1033427;28;20636;-23
2023/04/03 02:50:41;;;;;;;5.47;2.80;;;;;;;;;;1030910;28;20030;-22
2023/04/03 02:51:13;;;;;;;13.40;3.67;;;;;;;;;;1037881;28;20138;-24
2023/04/03 02:51:44;;;;;;;8.85;3.17;;;;;;;;;;1024359;28;20030;-22
2023/04/03 02:52:21;;;;;;;29.95;5.60;;;;;;;;;;1026551;28;20061;-23
2023/04/03 02:53:00;;;;;;;19.33;5.35;;;;;;;;;;1034853;28;20029;-23
2023/04/03 02:53:36;;;;;;;3.00;2.00;;;;;;;;;;1030793;28;20437;-23
2023/04/03 02:54:09;;;;;;;12.95;3.53;;;;;;;;;;1035951;28;20502;-21
2023/04/03 02:54:40;;;;;;;10.65;3.83;;;;;;;;;;1036490;28;20053;-22
2023/04/03 02:55:13;;;;;;;14.50;3.20;;;;;;;;;;1039214;28;20028;-20
2023/04/03 02:55:44;;;;;;;46.47;5.80;;;;;;;;;;1033087;28;20033;-22
2023/04/03 02:56:16;;;;;;;10.80;2.70;;;;;;;;;;1033821;28;20551;-23
2023/04/03 02:56:47;;;;;;;7.70;2.33;;;;;;;;;;1033312;28;20116;-23
2023/04/03 02:57:21;;;;;;;6.47;3.55;;;;;;;;;;1032628;28;20030;-21
2023/04/03 02:58:01;;;;;;;9.77;1.95;;;;;;;;;;1025745;28;20031;-20
2023/04/03 02:58:35;;;;;;;3.90;2.65;;;;;;;;;;1030754;28;20022;-22
2023/04/03 02:59:07;;;;;;;5.63;4.07;;;;;;;;;;1036130;28;20025;-19
2023/04/03 02:59:44;;;;;;;8.85;1.85;;;;;;;;;;1032748;28;20508;-20
2023/04/03 03:00:16;;;;;;;7.10;2.22;;;;;;;;;;1029832;28;20528;-20
2023/04/03 03:00:54;;;;;;;4.85;3.60;;;;;;;;;;1028446;28;20026;-21
2023/04/03 03:01:32;;;;;;;4.03;1.85;;;;;;;;;;1024927;28;20035;-23
2023/04/03 03:02:06;;;;;;;14.15;5.72;;;;;;;;;;1030026;28;20042;-22
2023/04/03 03:02:38;;;;;;;7.10;3.58;;;;;;;;;;1026509;28;20034;-19
2023/04/03 03:03:10;;;;;;;9.90;2.05;;;;;;;;;;1033921;28;20042;-22
2023/04/03 03:03:42;;;;;;;13.23;2.88;;;;;;;;;;1028894;28;20449;-23
2023/04/03 03:04:14;;;;;;;12.95;3.45;;;;;;;;;;1029976;28;20474;-21
2023/04/03 03:04:46;;;;;;;4.65;3.90;;;;;;;;;;1028338;28;20026;-23
2023/04/03 03:05:19;;;;;;;9.73;2.92;;;;;;;;;;1030572;28;20216;-21
2023/04/03 03:06:01;;;;;;;3.22;2.25;;;;;;;;;;1030070;28;20026;-22
2023/04/03 03:06:41;;;;;;;19.17;3.20;;;;;;;;;;1029154;28;20040;-23
2023/04/03 03:07:18;;;;;;;11.45;4.50;;;;;;;;;;1036203;28;20383;-22
2023/04/03 03:07:55;;;;;;;1.38;1.27;;;;;;;;;;1031209;28;20097;-23
2023/04/03 03:08:27;;;;;;;3.78;1.58;;;;;;;;;;1024874;28;20443;-23
2023/04/03 03:09:03;;;;;;;5.15;2.67;;;;;;;;;;1031901;28;20033;-20